Time;durP1;ratioP1;P1;durP2;ratioP2;P2;SDS_P1;SDS_P2;PMS_P1;PMS_P2;Temp;Humidity;BMP_temperature;BMP_pressure;BME280_temperature;BME280_humidity;BME280_pressure;Samples;Min_cycle;Max_cycle;Signal;HPM_P1;HPM_P2
2021/01/14 00:01:03;;;;;;;14.43;8.40;;;;;;;4.20;52.71;99067.63;5046956;28;20021;-78
2021/01/14 00:03:28;;;;;;;16.00;10.00;;;;;;;3.80;52.54;98998.38;5043795;28;20053;-77
2021/01/14 00:05:53;;;;;;;17.07;9.90;;;;;;;4.33;52.80;99099.44;5045176;28;20032;-78
2021/01/14 00:08:19;;;;;;;15.30;9.13;;;;;;;4.30;52.57;99078.81;5068444;23;20052;-78
2021/01/14 00:10:44;;;;;;;17.17;10.50;;;;;;;4.28;52.83;99091.22;5061155;28;20028;-77
2021/01/14 00:13:10;;;;;;;15.57;8.67;;;;;;;3.90;52.93;99020.97;5062566;28;20131;-78
2021/01/14 00:15:36;;;;;;;16.27;8.37;;;;;;;4.27;52.42;99078.31;5061067;28;20108;-77
2021/01/14 00:18:03;;;;;;;15.00;9.50;;;;;;;3.88;52.87;99008.06;5044301;28;20043;-77
2021/01/14 00:20:29;;;;;;;13.53;8.93;;;;;;;4.03;52.91;99058.00;5068587;23;20048;-78
2021/01/14 00:22:54;;;;;;;14.17;8.67;;;;;;;4.04;52.93;99044.78;5044038;28;20082;-77
2021/01/14 00:25:20;;;;;;;13.43;8.60;;;;;;;4.36;52.92;99078.22;5061404;28;20465;-78
2021/01/14 00:27:46;;;;;;;11.00;7.50;;;;;;;4.36;52.61;99074.78;5060079;28;20385;-77
2021/01/14 00:30:15;;;;;;;15.33;8.90;;;;;;;3.51;52.34;98946.31;5042676;28;20021;-78
2021/01/14 00:32:41;;;;;;;17.80;9.43;;;;;;;4.32;52.84;99076.06;5060660;28;20484;-78
2021/01/14 00:35:07;;;;;;;13.17;8.60;;;;;;;4.28;52.24;99083.38;5063020;28;20036;-77
2021/01/14 00:37:50;;;;;;;16.10;9.10;;;;;;;4.32;52.37;99063.81;5090773;22;20059;-78
2021/01/14 00:40:27;;;;;;;15.00;8.83;;;;;;;4.33;52.51;99064.63;5087247;22;20059;-76
2021/01/14 00:43:03;;;;;;;14.13;8.53;;;;;;;4.19;51.74;99063.38;5052904;23;20389;-77
2021/01/14 00:45:30;;;;;;;15.70;9.77;;;;;;;4.09;52.31;99058.22;5044802;28;20355;-78
2021/01/14 00:47:57;;;;;;;14.30;8.87;;;;;;;4.17;52.49;99065.31;5062384;28;20087;-77
2021/01/14 00:50:23;;;;;;;12.33;8.17;;;;;;;4.24;52.52;99060.31;5045444;28;20029;-76
2021/01/14 00:55:24;;;;;;;13.53;8.90;;;;;;;4.01;52.05;99018.97;5054932;23;20053;-77
2021/01/14 00:57:50;;;;;;;14.23;8.40;;;;;;;4.24;52.09;99068.16;5045504;28;20041;-78
2021/01/14 01:00:19;;;;;;;14.37;8.33;;;;;;;4.25;51.61;99062.78;5061457;28;20354;-78
2021/01/14 01:02:45;;;;;;;12.07;8.10;;;;;;;3.74;51.74;98962.41;5063138;28;20385;-77
2021/01/14 01:05:12;;;;;;;13.27;7.83;;;;;;;4.22;51.91;99039.56;5061543;28;20053;-77
2021/01/14 01:07:39;;;;;;;11.70;7.63;;;;;;;3.67;51.12;98957.91;5060618;28;20036;-77
2021/01/14 01:10:08;;;;;;;11.57;7.70;;;;;;;4.23;51.47;99045.59;5044567;28;20040;-77
2021/01/14 01:12:33;;;;;;;11.80;7.63;;;;;;;4.31;51.53;99048.28;5061645;28;20020;-77
2021/01/14 01:14:59;;;;;;;12.30;7.50;;;;;;;4.34;51.00;99050.59;5060411;28;20066;-77
2021/01/14 01:17:31;;;;;;;11.30;7.30;;;;;;;4.39;50.63;99051.78;5060336;28;20020;-77
2021/01/14 01:19:56;;;;;;;;;;;;;;;4.23;49.49;99050.84;5047966;23;20037;-77
2021/01/14 01:22:22;;;;;;;10.73;6.73;;;;;;;4.27;51.09;99037.31;5043734;28;19916;-78
2021/01/14 01:24:47;;;;;;;10.03;6.97;;;;;;;4.36;50.64;99044.25;5040116;28;20028;-77
2021/01/14 01:27:12;;;;;;;9.27;6.60;;;;;;;4.05;50.79;99007.25;5042252;28;20037;-77
2021/01/14 01:29:38;;;;;;;13.93;7.37;;;;;;;4.28;50.80;99054.63;5057739;23;20048;-79
2021/01/14 01:32:03;;;;;;;13.67;7.97;;;;;;;3.85;50.82;98981.44;5068448;23;20045;-78
2021/01/14 01:34:29;;;;;;;10.73;7.63;;;;;;;4.29;50.50;99056.28;5044751;28;20021;-77
2021/01/14 01:36:54;;;;;;;13.23;7.83;;;;;;;3.93;50.59;98999.78;5063027;28;20035;-78
2021/01/14 01:39:19;;;;;;;10.57;6.60;;;;;;;4.28;50.44;99057.25;5044966;28;20119;-77
2021/01/14 01:41:45;;;;;;;10.63;6.83;;;;;;;3.94;50.49;99004.84;5044379;28;20036;-79
2021/01/14 01:44:11;;;;;;;10.10;6.93;;;;;;;3.66;50.48;98970.13;5042315;28;20093;-76
2021/01/14 01:46:37;;;;;;;9.80;6.33;;;;;;;3.82;50.42;98964.28;5062557;28;20118;-77
2021/01/14 01:49:02;;;;;;;9.57;6.10;;;;;;;4.25;50.43;99033.22;5044095;28;20067;-78
2021/01/14 01:51:33;;;;;;;8.77;6.53;;;;;;;4.28;48.86;99038.13;5067813;23;20049;-77
2021/01/14 01:53:59;;;;;;;9.43;5.53;;;;;;;3.99;49.32;99000.00;5047212;28;20036;-77
2021/01/14 01:56:25;;;;;;;9.30;5.93;;;;;;;3.92;49.76;98985.09;5062530;28;20025;-77
2021/01/14 01:58:57;;;;;;;12.20;6.80;;;;;;;4.37;49.36;99043.28;5074835;23;20045;-77
2021/01/14 02:01:24;;;;;;;8.77;6.07;;;;;;;4.11;49.30;99024.09;5061963;28;20429;-77
2021/01/14 02:03:49;;;;;;;9.83;6.17;;;;;;;4.08;49.06;99000.91;5043458;28;20124;-77
2021/01/14 02:06:14;;;;;;;9.03;5.60;;;;;;;3.85;49.64;98966.59;5060850;28;20068;-77
2021/01/14 02:08:54;;;;;;;11.13;6.67;;;;;;;4.37;47.46;99048.50;5044753;28;20104;-76
2021/01/14 02:11:34;;;;;;;10.70;5.80;;;;;;;4.29;48.49;99035.38;5061607;28;20029;-76
2021/01/14 02:14:07;;;;;;;7.67;5.37;;;;;;;4.43;48.25;99055.75;5057351;23;20041;-78
2021/01/14 02:16:37;;;;;;;8.90;5.10;;;;;;;4.35;48.38;99044.41;5069269;23;20052;-78
2021/01/14 02:19:06;;;;;;;8.30;5.83;;;;;;;4.26;47.85;99051.34;5062907;28;20369;-77
2021/01/14 02:21:31;;;;;;;7.00;4.23;;;;;;;4.14;48.60;99031.66;5074045;23;20123;-78
2021/01/14 02:24:28;;;;;;;8.83;4.90;;;;;;;4.38;47.74;99055.38;5063695;28;20048;-77
2021/01/14 02:26:54;;;;;;;6.63;5.23;;;;;;;4.34;48.34;99058.44;5067791;28;20033;-77
2021/01/14 02:29:20;;;;;;;7.57;5.07;;;;;;;4.19;47.96;99055.53;5066047;28;20108;-78
2021/01/14 02:31:46;;;;;;;8.87;5.70;;;;;;;3.92;48.18;99013.81;5066018;28;20020;-77
2021/01/14 02:34:11;;;;;;;7.07;4.60;;;;;;;4.16;47.99;99034.94;5066437;28;20025;-78
2021/01/14 02:36:36;;;;;;;9.27;5.07;;;;;;;4.32;48.01;99055.16;5065824;28;20029;-77
2021/01/14 02:39:02;;;;;;;8.50;4.80;;;;;;;4.18;47.57;99033.00;5064133;28;20032;-77
2021/01/14 02:41:27;;;;;;;7.10;4.40;;;;;;;4.05;47.43;99016.88;5064190;28;20035;-77
2021/01/14 02:43:53;;;;;;;10.87;6.70;;;;;;;4.10;47.79;99022.47;5071750;23;20048;-77
2021/01/14 02:46:19;;;;;;;11.93;6.07;;;;;;;4.37;47.98;99045.06;5045540;28;20024;-78
2021/01/14 02:49:04;;;;;;;7.93;5.20;;;;;;;4.33;47.09;99047.16;5065485;28;20051;-77
2021/01/14 02:51:47;;;;;;;7.10;4.73;;;;;;;3.99;47.42;99010.44;5045645;28;20021;-77
2021/01/14 02:54:14;;;;;;;6.50;5.23;;;;;;;4.25;48.05;99039.25;5048241;28;20423;-78
2021/01/14 02:59:09;;;;;;;8.87;5.97;;;;;;;4.13;47.86;99037.84;5078602;22;20068;-77
2021/01/14 03:01:37;;;;;;;8.53;5.27;;;;;;;4.18;47.65;99047.84;5073207;23;20049;-77
2021/01/14 03:04:02;;;;;;;8.63;4.43;;;;;;;4.01;47.84;99025.97;5048183;28;20435;-77
2021/01/14 03:06:28;;;;;;;6.90;4.53;;;;;;;3.96;47.78;99015.16;5050685;28;20029;-77
2021/01/14 03:08:53;;;;;;;6.47;4.80;;;;;;;4.11;47.59;99048.44;5070862;28;20025;-79
2021/01/14 03:11:28;;;;;;;6.90;4.20;;;;;;;4.19;47.82;99055.53;5070116;28;20576;-76
2021/01/14 03:16:29;;;;;;;6.83;4.60;;;;;;;3.95;48.08;98987.41;5067851;28;20049;-78
2021/01/14 03:18:54;;;;;;;10.43;6.50;;;;;;;4.37;47.46;99064.19;5046881;28;20029;-77
2021/01/14 03:21:24;;;;;;;7.60;5.27;;;;;;;4.26;46.80;99042.69;5062308;28;20028;-77
2021/01/14 03:23:51;;;;;;;7.17;4.97;;;;;;;4.06;47.10;99008.88;5046025;28;20070;-77
2021/01/14 03:26:19;;;;;;;9.93;5.57;;;;;;;3.80;47.42;98979.25;5062859;28;20431;-77
2021/01/14 03:28:44;;;;;;;8.00;4.87;;;;;;;4.20;47.17;99049.34;5063625;28;20082;-77
2021/01/14 03:31:11;;;;;;;8.47;4.87;;;;;;;4.18;47.24;99043.44;5063732;28;20025;-77
2021/01/14 03:33:37;;;;;;;8.30;4.53;;;;;;;4.23;47.63;99040.38;5062578;28;20064;-77
2021/01/14 03:36:06;;;;;;;6.37;4.67;;;;;;;4.19;47.75;99033.81;5062862;28;20028;-77
2021/01/14 03:38:33;;;;;;;7.57;4.83;;;;;;;4.26;47.27;99042.69;5064108;28;20028;-78
2021/01/14 03:40:59;;;;;;;5.90;4.60;;;;;;;4.28;47.27;99048.59;5049035;23;20045;-78
2021/01/14 03:43:24;;;;;;;6.37;4.60;;;;;;;4.05;47.42;99027.31;5042358;28;20075;-77
2021/01/14 03:45:50;;;;;;;6.23;4.63;;;;;;;3.69;47.43;98958.56;5041898;28;20025;-77
2021/01/14 03:48:15;;;;;;;7.03;4.80;;;;;;;4.05;47.82;99043.00;5042406;28;20037;-77
2021/01/14 03:50:41;;;;;;;8.33;5.70;;;;;;;4.02;47.79;99031.06;5025037;28;20112;-79
2021/01/14 03:53:08;;;;;;;6.23;4.63;;;;;;;4.06;47.50;99039.41;5042407;28;20350;-77
2021/01/14 03:55:37;;;;;;;34.87;14.20;;;;;;;4.03;47.41;99040.53;5042688;28;20050;-78
2021/01/14 03:58:03;;;;;;;9.90;5.93;;;;;;;4.04;47.68;99039.56;5051012;23;20025;-77
2021/01/14 04:00:28;;;;;;;8.30;5.27;;;;;;;3.86;47.77;99014.41;5044471;28;20036;-77
2021/01/14 04:02:54;;;;;;;9.60;5.70;;;;;;;3.99;47.34;99023.50;5043916;28;20029;-77
2021/01/14 04:05:20;;;;;;;6.27;5.03;;;;;;;4.04;47.46;99036.94;5062625;28;20071;-77
2021/01/14 04:07:46;;;;;;;8.37;6.47;;;;;;;3.98;47.75;99036.72;5062798;28;20029;-77
2021/01/14 04:10:11;;;;;;;8.07;5.47;;;;;;;3.92;47.73;99012.03;5060940;28;20346;-77
2021/01/14 04:12:37;;;;;;;7.60;5.33;;;;;;;3.58;47.77;98957.00;5061367;28;20108;-77
2021/01/14 04:15:03;;;;;;;8.47;6.03;;;;;;;3.88;47.82;99002.03;5061044;28;20032;-77
2021/01/14 04:17:30;;;;;;;6.93;5.13;;;;;;;3.51;47.81;98945.50;5062014;28;20112;-77
2021/01/14 04:19:55;;;;;;;9.77;6.47;;;;;;;3.79;47.58;99015.00;5074510;23;20056;-77
2021/01/14 04:22:21;;;;;;;9.20;5.87;;;;;;;3.63;47.63;98969.59;5046925;28;20362;-77
2021/01/14 04:24:46;;;;;;;9.57;6.30;;;;;;;3.31;47.44;98912.69;5068848;23;20056;-77
2021/01/14 04:27:12;;;;;;;10.77;6.40;;;;;;;3.79;47.83;98999.34;5044174;28;20044;-79
2021/01/14 04:29:38;;;;;;;9.33;6.00;;;;;;;3.74;47.67;99001.56;5043192;28;20027;-77
2021/01/14 04:32:03;;;;;;;12.90;8.37;;;;;;;4.07;48.09;99033.22;5061210;28;20096;-77
2021/01/14 04:34:29;;;;;;;9.77;6.37;;;;;;;4.03;47.81;99040.53;5060881;28;20411;-78
2021/01/14 04:37:01;;;;;;;10.43;6.07;;;;;;;4.04;47.77;99033.50;5062222;28;20025;-78
2021/01/14 04:39:28;;;;;;;10.83;6.87;;;;;;;4.05;48.02;99041.19;5061108;28;20032;-77
2021/01/14 04:41:58;;;;;;;10.43;6.23;;;;;;;3.76;48.03;99004.03;5067730;23;20048;-77
2021/01/14 04:44:25;;;;;;;12.50;6.50;;;;;;;3.97;48.11;99038.50;5044239;28;20017;-77
2021/01/14 04:46:56;;;;;;;11.13;7.07;;;;;;;3.96;48.05;99041.28;5061268;28;20040;-77
2021/01/14 04:49:28;;;;;;;10.68;7.07;;;;;;;3.55;48.04;98977.34;5061494;28;20028;-77
2021/01/14 04:52:04;;;;;;;8.88;6.60;;;;;;;3.96;47.75;99041.28;5067790;23;20056;-77
2021/01/14 04:54:34;;;;;;;12.03;6.50;;;;;;;3.52;47.55;98991.50;5043911;28;20041;-77
2021/01/14 04:57:17;;;;;;;12.80;7.73;;;;;;;3.93;47.88;99049.41;5043805;28;20044;-77
2021/01/14 04:59:43;;;;;;;9.67;5.87;;;;;;;3.95;47.89;99048.28;5060643;28;20104;-77
2021/01/14 05:02:19;;;;;;;11.07;6.07;;;;;;;3.92;46.84;99037.31;5044763;28;20107;-77
2021/01/14 05:04:45;;;;;;;14.87;7.30;;;;;;;3.97;48.04;99035.06;5044015;28;20025;-77
2021/01/14 05:07:14;;;;;;;9.00;5.77;;;;;;;3.22;47.42;98930.03;5044513;28;20487;-78
2021/01/14 05:09:41;;;;;;;9.37;6.27;;;;;;;3.38;47.05;98971.97;5060858;28;20063;-77
2021/01/14 05:12:08;;;;;;;7.83;5.53;;;;;;;3.78;47.46;99046.47;5060747;28;20025;-78
2021/01/14 05:14:33;;;;;;;8.43;6.07;;;;;;;3.64;48.08;98979.91;5043392;28;20109;-77
2021/01/14 05:17:00;;;;;;;10.00;5.77;;;;;;;4.12;48.43;99038.81;5059380;28;20427;-77
2021/01/14 05:19:26;;;;;;;10.27;6.80;;;;;;;4.24;48.62;99027.16;5059556;28;20423;-77
2021/01/14 05:21:54;;;;;;;11.67;7.70;;;;;;;4.29;49.11;99043.22;5065940;23;20045;-78
2021/01/14 05:24:20;;;;;;;11.43;7.90;;;;;;;4.04;49.04;98996.94;5059582;28;20028;-78
2021/01/14 05:26:46;;;;;;;11.50;7.07;;;;;;;4.37;49.75;99043.28;5042305;28;20028;-78
2021/01/14 05:29:20;;;;;;;14.37;8.50;;;;;;;4.41;49.33;99039.41;5061353;28;20033;-77
2021/01/14 05:31:48;;;;;;;15.80;9.23;;;;;;;4.42;49.52;99037.59;5060478;28;20028;-78
2021/01/14 05:34:15;;;;;;;14.97;9.17;;;;;;;4.41;49.58;99039.41;5060674;28;20025;-77
2021/01/14 05:39:14;;;;;;;16.74;8.70;;;;;;;4.40;49.18;99044.78;5081221;22;20049;-78
2021/01/14 05:41:40;;;;;;;14.27;9.87;;;;;;;4.38;50.06;99044.09;5050405;23;20041;-78
2021/01/14 05:44:06;;;;;;;16.63;9.80;;;;;;;4.38;49.91;99034.47;5061661;28;20101;-78
2021/01/14 05:46:33;;;;;;;16.37;9.70;;;;;;;4.37;49.87;99039.84;5068798;23;20395;-77
2021/01/14 05:49:04;;;;;;;13.10;8.50;;;;;;;4.29;49.82;99027.53;5043257;28;20051;-78
2021/01/14 05:51:33;;;;;;;14.23;9.83;;;;;;;3.94;50.21;98973.53;5061320;28;20033;-78
2021/01/14 05:54:14;;;;;;;11.40;9.47;;;;;;;4.14;49.20;99013.38;5054630;23;20532;-77
2021/01/14 05:56:43;;;;;;;12.87;9.60;;;;;;;4.23;49.30;99033.38;5066640;23;20048;-77
2021/01/14 05:59:12;;;;;;;11.63;8.47;;;;;;;4.17;49.70;99030.53;5060104;28;20500;-78
2021/01/14 06:01:55;;;;;;;12.23;8.13;;;;;;;3.92;49.25;98996.34;5059534;28;20021;-77
2021/01/14 06:04:22;;;;;;;13.00;7.70;;;;;;;4.06;49.45;99031.56;5042797;28;20029;-77
2021/01/14 06:06:51;;;;;;;13.77;8.07;;;;;;;4.02;49.43;99028.44;5072504;22;20045;-79
2021/01/14 06:09:18;;;;;;;12.87;7.90;;;;;;;4.00;48.93;99024.34;5061369;28;20033;-77
2021/01/14 06:14:29;;;;;;;12.40;7.34;;;;;;;3.74;48.45;98995.53;5067570;23;20329;-77
2021/01/14 06:16:58;;;;;;;13.87;8.03;;;;;;;3.76;48.93;99024.91;5068523;23;20451;-79
2021/01/14 06:19:25;;;;;;;12.47;8.10;;;;;;;3.68;49.26;99006.53;5073141;23;20348;-76
2021/01/14 06:21:55;;;;;;;14.67;7.87;;;;;;;3.50;48.97;98990.84;5060879;28;20036;-77
2021/01/14 06:24:37;;;;;;;15.87;8.87;;;;;;;3.71;48.44;99027.94;5064191;28;20050;-78
2021/01/14 06:27:11;;;;;;;14.60;9.17;;;;;;;3.68;49.00;99036.06;5078820;22;20036;-77
2021/01/14 06:29:41;;;;;;;13.17;8.70;;;;;;;3.66;47.80;99039.78;5063313;23;20051;-77
2021/01/14 06:32:13;;;;;;;12.23;8.30;;;;;;;3.63;48.99;99027.84;5072990;22;20053;-77
2021/01/14 06:34:47;;;;;;;14.83;8.97;;;;;;;3.43;48.80;98992.41;5042792;28;20031;-78
2021/01/14 06:37:20;;;;;;;13.17;8.50;;;;;;;3.75;48.84;99042.38;5070836;23;20026;-78
2021/01/14 06:42:27;;;;;;;13.98;8.48;;;;;;;3.81;48.21;99028.72;5069678;22;20083;-78
2021/01/14 06:45:20;;;;;;;13.90;7.30;;;;;;;3.80;47.63;99028.88;5078552;23;20308;-77
2021/01/14 06:50:27;;;;;;;12.18;7.85;;;;;;;3.85;47.45;99023.22;5083156;22;20088;-79
2021/01/14 06:53:16;;;;;;;12.60;7.93;;;;;;;3.90;47.12;99024.41;5075519;23;20033;-78
2021/01/14 06:55:43;;;;;;;9.50;5.90;;;;;;;3.92;47.83;99032.09;5071386;23;20053;-77
2021/01/14 06:58:15;;;;;;;29.53;14.80;;;;;;;3.96;46.81;99031.66;5068677;23;20026;-77
2021/01/14 07:00:42;;;;;;;16.40;9.77;;;;;;;3.79;47.58;99006.34;5052371;28;20025;-78
2021/01/14 07:03:19;;;;;;;12.40;7.70;;;;;;;3.88;46.49;99035.97;5086193;22;20041;-76
2021/01/14 07:05:58;;;;;;;12.63;7.97;;;;;;;3.89;46.84;99038.44;5052293;28;20043;-74
2021/01/14 07:08:37;;;;;;;12.27;6.87;;;;;;;3.88;45.58;99046.41;5054507;23;20410;-77
2021/01/14 07:11:22;;;;;;;8.60;5.87;;;;;;;3.56;45.33;99003.31;5060013;22;20025;-79
2021/01/14 07:13:51;;;;;;;9.27;5.90;;;;;;;3.86;46.98;99050.97;5044881;28;20037;-78
2021/01/14 07:16:20;;;;;;;10.37;6.47;;;;;;;3.79;44.57;99051.56;5055779;28;20033;-80
2021/01/14 07:18:46;;;;;;;9.67;5.90;;;;;;;3.78;46.31;99070.81;5048571;28;20056;-77
2021/01/14 07:21:15;;;;;;;12.63;8.60;;;;;;;3.83;46.67;99058.13;5061884;28;20056;-77
2021/01/14 07:23:49;;;;;;;10.50;6.23;;;;;;;3.81;46.57;99057.44;5056987;28;20048;-77
2021/01/14 07:26:15;;;;;;;11.93;6.50;;;;;;;3.57;46.95;99011.94;5059990;28;20087;-77
2021/01/14 07:28:42;;;;;;;9.27;5.40;;;;;;;3.35;46.80;98974.03;5061795;28;20059;-78
2021/01/14 07:31:25;;;;;;;7.97;5.60;;;;;;;3.89;45.21;99063.72;5047178;28;20040;-76
2021/01/14 07:33:52;;;;;;;;;;;;;;;3.89;45.99;99064.53;5043027;28;20033;-77
2021/01/14 07:36:29;;;;;;;10.13;5.40;;;;;;;3.86;46.80;99048.34;5067858;23;19924;-78
2021/01/14 07:38:56;;;;;;;11.10;5.70;;;;;;;4.08;46.73;99066.22;5048709;23;20054;-76
2021/01/14 07:41:22;;;;;;;10.80;5.73;;;;;;;4.11;46.37;99071.13;5034875;28;20041;-77
2021/01/14 07:46:24;;;;;;;14.45;9.40;;;;;;;4.11;42.90;99055.47;5070222;22;20144;-77
2021/01/14 07:48:51;;;;;;;10.20;6.33;;;;;;;3.89;45.28;99012.31;5045684;28;20033;-76
2021/01/14 07:51:18;;;;;;;12.40;7.80;;;;;;;4.20;45.63;99062.41;5062281;23;20282;-77
2021/01/14 07:54:04;;;;;;;9.87;5.57;;;;;;;3.86;44.75;99006.56;5038430;28;20029;-77
2021/01/14 07:56:31;;;;;;;11.93;6.83;;;;;;;3.72;45.15;98997.47;5034063;28;20350;-77
2021/01/14 07:58:58;;;;;;;9.63;5.80;;;;;;;4.18;44.92;99080.03;5057463;28;20320;-76
2021/01/14 08:01:24;;;;;;;17.07;9.03;;;;;;;4.24;44.96;99076.81;5057730;28;20032;-77
2021/01/14 08:03:50;;;;;;;12.27;8.57;;;;;;;4.11;44.76;99052.84;5038446;28;20032;-76
2021/01/14 08:06:15;;;;;;;8.63;5.97;;;;;;;4.32;44.57;99066.44;5053314;28;20052;-75
2021/01/14 08:08:41;;;;;;;10.77;5.73;;;;;;;4.07;44.67;99039.25;5057222;28;20021;-74
2021/01/14 08:11:17;;;;;;;14.20;8.07;;;;;;;4.30;43.15;99062.31;5068239;23;20044;-76
2021/01/14 08:14:17;;;;;;;8.40;5.57;;;;;;;4.27;42.77;99054.78;5049590;28;20068;-76
2021/01/14 08:16:56;;;;;;;8.20;4.63;;;;;;;4.13;44.08;99028.22;5056607;28;20028;-75
2021/01/14 08:19:37;;;;;;;9.53;6.60;;;;;;;4.41;43.28;99049.84;5039997;28;20431;-76
2021/01/14 08:22:06;;;;;;;17.83;9.77;;;;;;;4.28;44.16;99041.56;5054095;28;20092;-72
2021/01/14 08:24:37;;;;;;;30.20;16.60;;;;;;;4.47;44.02;99051.06;5054723;28;20474;-74
2021/01/14 08:27:05;;;;;;;12.70;7.15;;;;;;;4.50;44.22;99050.75;5058400;28;20025;-76
2021/01/14 08:29:39;;;;;;;16.37;8.20;;;;;;;4.52;43.96;99051.44;5051264;28;20041;-75
2021/01/14 08:32:24;;;;;;;10.03;6.07;;;;;;;4.69;43.11;99049.75;5055657;28;20099;-76
2021/01/14 08:34:52;;;;;;;11.30;5.90;;;;;;;4.53;43.64;98992.13;5036334;28;20057;-74
2021/01/14 08:37:56;;;;;;;9.07;5.70;;;;;;;4.94;42.13;99050.75;5058296;28;20032;-78
2021/01/14 08:40:28;;;;;;;9.10;5.57;;;;;;;4.85;43.11;99023.72;4974807;28;20038;-77
2021/01/14 08:45:27;;;;;;;7.30;4.10;;;;;;;4.83;42.90;99020.44;5054853;28;20064;-77
2021/01/14 08:48:18;;;;;;;10.77;4.47;;;;;;;4.82;41.59;99017.97;5058531;28;20043;-78
2021/01/14 08:50:45;;;;;;;5.60;3.63;;;;;;;5.15;42.44;99053.00;5038466;28;20492;-77
2021/01/14 08:53:25;;;;;;;9.33;4.37;;;;;;;5.04;41.83;99062.75;5042108;28;20028;-77
2021/01/14 08:56:02;;;;;;;6.70;3.97;;;;;;;4.77;39.89;99008.78;5037031;23;20426;-77
2021/01/14 08:58:43;;;;;;;5.97;3.37;;;;;;;4.88;39.79;99046.94;5028074;28;20057;-78
2021/01/14 09:01:18;;;;;;;8.65;4.40;;;;;;;4.56;41.66;98976.97;5041775;28;20116;-78
2021/01/14 09:03:47;;;;;;;11.23;5.40;;;;;;;5.08;41.87;99056.22;4999830;28;20405;-78
2021/01/14 09:06:27;;;;;;;5.73;4.10;;;;;;;5.20;40.61;99050.72;5019109;28;20022;-77
2021/01/14 09:08:54;;;;;;;7.23;3.93;;;;;;;5.26;40.89;99074.50;5035821;28;20113;-79
2021/01/14 09:11:26;;;;;;;4.37;3.60;;;;;;;4.98;40.06;99025.91;5003609;28;20038;-78
2021/01/14 09:14:14;;;;;;;5.33;3.37;;;;;;;4.65;39.84;98954.31;5018272;28;20041;-77
2021/01/14 09:16:42;;;;;;;8.30;4.97;;;;;;;5.04;40.30;99010.41;5019202;28;20439;-79
2021/01/14 09:19:18;;;;;;;6.07;3.90;;;;;;;5.32;39.96;99025.94;5021053;28;20042;-77
2021/01/14 09:24:11;;;;;;;6.57;3.88;;;;;;;4.56;40.43;98875.00;5065217;22;20057;-78
2021/01/14 09:26:43;;;;;;;7.07;4.63;;;;;;;5.43;40.31;98999.50;5059463;28;20033;-78
2021/01/14 09:29:13;;;;;;;4.33;3.27;;;;;;;5.57;40.13;98991.03;5056705;28;20036;-76
2021/01/14 09:31:39;;;;;;;5.13;3.00;;;;;;;5.18;39.38;98927.88;5060460;28;20032;-76
2021/01/14 09:34:05;;;;;;;4.13;2.87;;;;;;;5.42;39.33;98961.19;5059782;28;20069;-77
2021/01/14 09:36:35;;;;;;;6.67;4.03;;;;;;;5.50;38.50;98955.97;5059880;28;20327;-78
2021/01/14 09:39:07;;;;;;;5.67;3.67;;;;;;;5.79;38.41;98973.06;5060573;28;20347;-78
2021/01/14 09:41:37;;;;;;;5.65;3.55;;;;;;;5.10;39.23;98836.28;5062509;28;20502;-81
2021/01/14 09:44:03;;;;;;;5.43;3.10;;;;;;;5.47;39.02;98882.19;5056403;28;20324;-78
2021/01/14 09:46:36;;;;;;;6.03;3.07;;;;;;;5.91;38.30;98949.03;5053127;28;20033;-77
2021/01/14 09:49:09;;;;;;;4.90;3.63;;;;;;;5.50;38.28;98871.38;5036032;28;20454;-80
2021/01/14 09:51:36;;;;;;;5.90;2.97;;;;;;;5.99;37.87;98916.81;5038464;28;20028;-81
2021/01/14 09:54:07;;;;;;;5.97;3.20;;;;;;;6.26;36.90;98945.28;5038036;28;20047;-80
2021/01/14 09:56:44;;;;;;;5.40;3.00;;;;;;;6.18;37.57;98897.31;5051968;28;20029;-78
2021/01/14 09:59:15;;;;;;;7.27;3.20;;;;;;;6.55;37.79;98938.69;5045526;28;20041;-78
2021/01/14 10:01:48;;;;;;;6.55;3.53;;;;;;;6.52;37.48;98931.97;5052429;28;20039;-84
2021/01/14 10:04:17;;;;;;;3.50;2.27;;;;;;;6.63;35.87;98947.38;5032205;28;20131;-80
2021/01/14 10:06:47;;;;;;;3.67;2.17;;;;;;;6.48;36.54;98933.31;5057321;28;21283;-79
2021/01/14 10:09:15;;;;;;;3.93;2.43;;;;;;;6.12;36.36;98885.69;5054594;28;20064;-83
2021/01/14 10:11:41;;;;;;;7.07;3.50;;;;;;;6.33;36.58;98935.78;5052553;28;20386;-79
2021/01/14 10:14:15;;;;;;;4.40;3.40;;;;;;;6.13;36.99;98913.53;5057700;28;20025;-79
2021/01/14 10:16:42;;;;;;;3.63;2.63;;;;;;;6.27;37.25;98927.75;5056848;28;20116;-78
2021/01/14 10:19:15;;;;;;;5.67;3.00;;;;;;;6.23;36.71;98935.13;5040327;28;20053;-79
2021/01/14 10:21:42;;;;;;;7.30;3.93;;;;;;;6.24;37.25;98922.84;5054332;28;20029;-82
2021/01/14 10:24:22;;;;;;;12.00;4.10;;;;;;;6.17;37.37;98914.81;5047189;28;20029;-78
2021/01/14 10:26:47;;;;;;;8.67;4.70;;;;;;;6.04;37.52;98885.69;5049927;28;20427;-77
2021/01/14 10:29:41;;;;;;;4.80;3.90;;;;;;;6.11;35.79;98875.34;5052100;28;20172;-82
2021/01/14 10:32:11;;;;;;;7.00;4.63;;;;;;;5.96;37.89;98849.00;5054925;28;20099;-79
2021/01/14 10:34:55;;;;;;;5.60;4.00;;;;;;;5.72;37.23;98790.38;5036742;28;20369;-77
2021/01/14 10:37:26;;;;;;;13.10;7.00;;;;;;;5.85;36.79;98795.09;5053153;28;20370;-78
2021/01/14 10:39:55;;;;;;;10.45;6.40;;;;;;;5.98;38.59;98815.59;5052335;28;20321;-79
2021/01/14 10:42:39;;;;;;;7.83;5.10;;;;;;;5.97;37.46;98832.31;5055588;28;20037;-76
2021/01/14 10:45:07;;;;;;;8.53;4.40;;;;;;;5.73;38.17;98810.34;5054216;28;20037;-76
2021/01/14 10:47:33;;;;;;;8.57;4.67;;;;;;;5.32;38.47;98738.84;5052372;28;20082;-73
2021/01/14 10:49:59;;;;;;;8.10;5.00;;;;;;;5.57;38.88;98746.69;5025238;28;20060;-73
2021/01/14 10:52:25;;;;;;;7.73;5.47;;;;;;;6.07;39.11;98793.63;5059594;28;20067;-77
2021/01/14 10:55:02;;;;;;;8.53;5.03;;;;;;;6.13;37.99;98786.91;5058214;28;20416;-80
2021/01/14 10:57:54;;;;;;;8.77;4.43;;;;;;;6.08;38.08;98770.88;5060163;28;20037;-74
2021/01/14 11:00:23;;;;;;;6.57;5.00;;;;;;;6.13;38.33;98766.75;5061672;28;20031;-78
2021/01/14 11:02:59;;;;;;;5.23;3.80;;;;;;;6.23;37.85;98748.22;5056019;28;20037;-76
2021/01/14 11:05:48;;;;;;;6.63;3.53;;;;;;;5.92;38.20;98717.50;5048620;28;20406;-76
2021/01/14 11:08:21;;;;;;;7.67;5.10;;;;;;;6.19;37.95;98724.16;5055592;28;20037;-76
2021/01/14 11:11:06;;;;;;;9.93;5.37;;;;;;;6.29;37.95;98710.84;5051890;28;20118;-76
2021/01/14 11:13:38;;;;;;;10.67;6.57;;;;;;;6.37;38.43;98705.56;5056421;28;20049;-79
2021/01/14 11:16:04;;;;;;;;;;;;;;;6.31;37.50;98687.88;5054172;28;20031;-80
2021/01/14 11:18:30;;;;;;;5.33;3.07;;;;;;;5.98;38.68;98619.09;5055390;28;19913;-78
2021/01/14 11:20:55;;;;;;;7.33;3.33;;;;;;;5.68;38.82;98570.88;5051703;28;20029;-78
2021/01/14 11:23:21;;;;;;;6.97;3.63;;;;;;;5.72;38.43;98586.09;5035057;28;20114;-84
2021/01/14 11:25:46;;;;;;;7.07;3.00;;;;;;;5.28;38.42;98501.19;5050037;28;20025;-76
2021/01/14 11:28:12;;;;;;;5.97;3.50;;;;;;;6.45;38.76;98673.22;5050743;28;20143;-75
2021/01/14 11:30:37;;;;;;;5.00;3.27;;;;;;;6.11;38.60;98603.63;5037154;28;20029;-75
2021/01/14 11:33:02;;;;;;;5.20;3.27;;;;;;;6.58;39.04;98678.72;5055256;28;20033;-75
2021/01/14 11:35:28;;;;;;;11.33;4.17;;;;;;;6.25;38.86;98626.47;5054049;28;20025;-74
2021/01/14 11:37:53;;;;;;;8.97;6.00;;;;;;;6.40;38.86;98646.72;5054281;28;20032;-75
2021/01/14 11:40:19;;;;;;;7.40;4.07;;;;;;;6.25;38.67;98631.72;5055496;28;20103;-73
2021/01/14 11:42:44;;;;;;;7.27;4.20;;;;;;;6.58;38.75;98694.44;5054215;28;20048;-74
2021/01/14 11:45:11;;;;;;;6.57;3.97;;;;;;;6.23;38.70;98646.81;5037329;28;20366;-77
2021/01/14 11:47:36;;;;;;;4.77;4.10;;;;;;;6.45;38.35;98679.28;5045001;23;20045;-76
2021/01/14 11:50:02;;;;;;;7.27;4.30;;;;;;;6.62;38.64;98693.94;5037597;28;20112;-77
2021/01/14 11:52:27;;;;;;;7.17;4.30;;;;;;;6.48;38.37;98651.91;5059928;28;20112;-78
2021/01/14 11:54:53;;;;;;;7.10;4.90;;;;;;;6.42;38.31;98650.78;5058756;28;20437;-77
2021/01/14 11:57:18;;;;;;;10.17;6.07;;;;;;;6.74;37.88;98680.44;5057739;28;20029;-77
2021/01/14 11:59:44;;;;;;;5.97;3.90;;;;;;;6.65;38.28;98651.63;5038219;28;20430;-78
2021/01/14 12:02:10;;;;;;;3.57;2.63;;;;;;;6.77;37.58;98654.69;5056135;28;20415;-80
2021/01/14 12:04:35;;;;;;;6.33;2.87;;;;;;;6.70;37.72;98651.13;5055469;28;20021;-77
2021/01/14 12:07:00;;;;;;;3.83;2.77;;;;;;;6.58;37.82;98645.44;5039443;28;20031;-79
2021/01/14 12:09:26;;;;;;;3.73;2.57;;;;;;;6.53;38.26;98625.97;5056480;28;20372;-78
2021/01/14 12:11:55;;;;;;;4.23;2.97;;;;;;;6.44;37.81;98617.34;5032763;28;20183;-81
2021/01/14 12:14:21;;;;;;;9.17;6.10;;;;;;;6.43;38.17;98633.25;5055795;28;20055;-80
2021/01/14 12:16:47;;;;;;;8.47;6.57;;;;;;;6.63;39.45;98677.19;5055511;28;20060;-80